sensor_id;sensor_type;location;lat;lon;timestamp;temperature;humidity
59303;DHT22;45074;52.764;6.896;2022-09-09T00:03:02;14.00;99.90
59303;DHT22;45074;52.764;6.896;2022-09-09T00:13:38;13.90;99.90
59303;DHT22;45074;52.764;6.896;2022-09-09T00:21:42;13.90;99.90
59303;DHT22;45074;52.764;6.896;2022-09-09T00:24:23;13.90;99.90
59303;DHT22;45074;52.764;6.896;2022-09-09T00:26:55;13.90;99.90
59303;DHT22;45074;52.764;6.896;2022-09-09T00:29:36;13.90;99.90
59303;DHT22;45074;52.764;6.896;2022-09-09T00:32:16;13.80;99.90
59303;DHT22;45074;52.764;6.896;2022-09-09T00:35:04;13.80;99.90
59303;DHT22;45074;52.764;6.896;2022-09-09T00:40:22;13.70;99.90
59303;DHT22;45074;52.764;6.896;2022-09-09T00:43:00;13.70;99.90
59303;DHT22;45074;52.764;6.896;2022-09-09T00:45:41;13.80;99.90
59303;DHT22;45074;52.764;6.896;2022-09-09T00:48:13;13.80;99.90
59303;DHT22;45074;52.764;6.896;2022-09-09T00:50:59;13.70;99.90
59303;DHT22;45074;52.764;6.896;2022-09-09T00:56:29;15.70;99.90
59303;DHT22;45074;52.764;6.896;2022-09-09T01:03:19;13.90;99.90
59303;DHT22;45074;52.764;6.896;2022-09-09T01:05:39;13.20;99.90
59303;DHT22;45074;52.764;6.896;2022-09-09T01:08:33;14.00;99.90
59303;DHT22;45074;52.764;6.896;2022-09-09T01:13:30;14.10;99.90
59303;DHT22;45074;52.764;6.896;2022-09-09T01:15:58;14.10;99.90
59303;DHT22;45074;52.764;6.896;2022-09-09T01:18:29;14.20;99.90
59303;DHT22;45074;52.764;6.896;2022-09-09T01:21:25;14.30;99.90
59303;DHT22;45074;52.764;6.896;2022-09-09T01:26:39;14.20;99.90
59303;DHT22;45074;52.764;6.896;2022-09-09T01:29:14;14.20;99.90
59303;DHT22;45074;52.764;6.896;2022-09-09T01:31:53;14.20;99.90
59303;DHT22;45074;52.764;6.896;2022-09-09T01:34:21;14.20;99.90
59303;DHT22;45074;52.764;6.896;2022-09-09T01:36:52;14.50;99.90
59303;DHT22;45074;52.764;6.896;2022-09-09T01:39:19;14.20;99.90
59303;DHT22;45074;52.764;6.896;2022-09-09T01:44:12;14.30;99.90
59303;DHT22;45074;52.764;6.896;2022-09-09T01:49:06;14.20;99.90
59303;DHT22;45074;52.764;6.896;2022-09-09T02:03:00;14.20;99.90
59303;DHT22;45074;52.764;6.896;2022-09-09T02:05:11;14.20;99.90
59303;DHT22;45074;52.764;6.896;2022-09-09T02:07:42;14.20;99.90
59303;DHT22;45074;52.764;6.896;2022-09-09T02:12:40;14.20;99.90
59303;DHT22;45074;52.764;6.896;2022-09-09T02:15:11;12.60;99.90
59303;DHT22;45074;52.764;6.896;2022-09-09T02:17:41;14.10;99.90
59303;DHT22;45074;52.764;6.896;2022-09-09T02:20:11;14.10;99.90
59303;DHT22;45074;52.764;6.896;2022-09-09T02:22:41;14.10;99.90
59303;DHT22;45074;52.764;6.896;2022-09-09T02:25:10;14.10;99.90
59303;DHT22;45074;52.764;6.896;2022-09-09T02:32:32;14.10;99.90
59303;DHT22;45074;52.764;6.896;2022-09-09T02:35:08;14.20;99.90
59303;DHT22;45074;52.764;6.896;2022-09-09T02:37:41;14.20;99.90
59303;DHT22;45074;52.764;6.896;2022-09-09T02:40:10;15.90;99.90
59303;DHT22;45074;52.764;6.896;2022-09-09T02:42:40;14.20;99.90
59303;DHT22;45074;52.764;6.896;2022-09-09T02:45:08;14.50;99.90
59303;DHT22;45074;52.764;6.896;2022-09-09T02:50:13;15.00;99.90
59303;DHT22;45074;52.764;6.896;2022-09-09T02:55:39;15.10;99.90
59303;DHT22;45074;52.764;6.896;2022-09-09T02:58:10;14.20;99.90
59303;DHT22;45074;52.764;6.896;2022-09-09T03:00:38;14.20;99.90
59303;DHT22;45074;52.764;6.896;2022-09-09T03:03:06;14.20;99.90
59303;DHT22;45074;52.764;6.896;2022-09-09T03:20:09;14.10;99.90
59303;DHT22;45074;52.764;6.896;2022-09-09T03:37:16;14.10;99.90
59303;DHT22;45074;52.764;6.896;2022-09-09T03:51:55;14.10;99.90
59303;DHT22;45074;52.764;6.896;2022-09-09T03:54:23;14.00;99.90
59303;DHT22;45074;52.764;6.896;2022-09-09T04:28:35;13.90;99.90
59303;DHT22;45074;52.764;6.896;2022-09-09T04:31:24;14.00;99.90
59303;DHT22;45074;52.764;6.896;2022-09-09T04:33:50;14.00;99.90
59303;DHT22;45074;52.764;6.896;2022-09-09T04:51:14;13.40;99.90
59303;DHT22;45074;52.764;6.896;2022-09-09T04:56:11;14.00;99.90
59303;DHT22;45074;52.764;6.896;2022-09-09T04:58:39;14.00;99.90
59303;DHT22;45074;52.764;6.896;2022-09-09T05:01:23;14.00;99.90
59303;DHT22;45074;52.764;6.896;2022-09-09T05:06:19;14.00;99.90
59303;DHT22;45074;52.764;6.896;2022-09-09T05:11:16;14.00;99.90
59303;DHT22;45074;52.764;6.896;2022-09-09T05:25:58;13.90;99.90
59303;DHT22;45074;52.764;6.896;2022-09-09T05:28:24;13.80;99.90
59303;DHT22;45074;52.764;6.896;2022-09-09T05:30:59;13.80;99.90
59303;DHT22;45074;52.764;6.896;2022-09-09T05:33:26;13.80;99.90
59303;DHT22;45074;52.764;6.896;2022-09-09T05:36:10;13.80;99.90
59303;DHT22;45074;52.764;6.896;2022-09-09T05:46:18;13.80;99.90
59303;DHT22;45074;52.764;6.896;2022-09-09T05:48:45;13.80;99.90
59303;DHT22;45074;52.764;6.896;2022-09-09T05:51:14;13.80;99.90
59303;DHT22;45074;52.764;6.896;2022-09-09T05:53:42;13.80;99.90
59303;DHT22;45074;52.764;6.896;2022-09-09T05:56:11;13.90;99.90
59303;DHT22;45074;52.764;6.896;2022-09-09T06:03:41;14.00;99.90
59303;DHT22;45074;52.764;6.896;2022-09-09T06:06:10;14.10;99.90
59303;DHT22;45074;52.764;6.896;2022-09-09T06:08:39;14.10;99.90
59303;DHT22;45074;52.764;6.896;2022-09-09T06:11:07;14.10;99.90
59303;DHT22;45074;52.764;6.896;2022-09-09T06:20:57;14.20;99.90
59303;DHT22;45074;52.764;6.896;2022-09-09T06:23:23;15.70;99.90
59303;DHT22;45074;52.764;6.896;2022-09-09T06:42:59;14.40;99.90
59303;DHT22;45074;52.764;6.896;2022-09-09T06:47:55;14.30;99.90
59303;DHT22;45074;52.764;6.896;2022-09-09T07:39:13;15.10;99.90
59303;DHT22;45074;52.764;6.896;2022-09-09T07:41:41;15.20;99.90
59303;DHT22;45074;52.764;6.896;2022-09-09T07:44:19;15.10;99.90
59303;DHT22;45074;52.764;6.896;2022-09-09T07:51:41;15.60;99.90
59303;DHT22;45074;52.764;6.896;2022-09-09T07:54:10;15.80;99.90
59303;DHT22;45074;52.764;6.896;2022-09-09T07:56:37;15.90;99.90
59303;DHT22;45074;52.764;6.896;2022-09-09T07:59:03;16.00;99.90
59303;DHT22;45074;52.764;6.896;2022-09-09T08:01:34;16.10;99.90
59303;DHT22;45074;52.764;6.896;2022-09-09T08:04:08;16.20;99.90
59303;DHT22;45074;52.764;6.896;2022-09-09T08:06:39;16.30;99.90
59303;DHT22;45074;52.764;6.896;2022-09-09T08:09:06;16.80;99.90
59303;DHT22;45074;52.764;6.896;2022-09-09T08:16:30;16.70;99.90
59303;DHT22;45074;52.764;6.896;2022-09-09T08:21:28;16.80;99.90
59303;DHT22;45074;52.764;6.896;2022-09-09T08:23:56;16.80;99.90
59303;DHT22;45074;52.764;6.896;2022-09-09T08:26:27;16.90;99.90
59303;DHT22;45074;52.764;6.896;2022-09-09T08:28:55;16.60;99.90
59303;DHT22;45074;52.764;6.896;2022-09-09T08:31:24;17.00;99.90
59303;DHT22;45074;52.764;6.896;2022-09-09T08:36:20;17.10;99.90
59303;DHT22;45074;52.764;6.896;2022-09-09T08:38:52;17.00;99.90
59303;DHT22;45074;52.764;6.896;2022-09-09T08:41:39;17.00;99.90
59303;DHT22;45074;52.764;6.896;2022-09-09T08:49:41;17.00;99.90
59303;DHT22;45074;52.764;6.896;2022-09-09T08:52:17;17.00;99.90
59303;DHT22;45074;52.764;6.896;2022-09-09T08:57:14;17.00;99.90
59303;DHT22;45074;52.764;6.896;2022-09-09T09:02:38;17.10;99.90
59303;DHT22;45074;52.764;6.896;2022-09-09T09:08:03;17.50;99.90
59303;DHT22;45074;52.764;6.896;2022-09-09T09:10:54;17.30;99.90
59303;DHT22;45074;52.764;6.896;2022-09-09T09:13:45;17.30;99.90
59303;DHT22;45074;52.764;6.896;2022-09-09T09:25:10;16.80;99.90
59303;DHT22;45074;52.764;6.896;2022-09-09T09:30:44;17.90;99.90
59303;DHT22;45074;52.764;6.896;2022-09-09T09:33:38;17.90;99.90
59303;DHT22;45074;52.764;6.896;2022-09-09T09:36:10;17.90;99.90
59303;DHT22;45074;52.764;6.896;2022-09-09T09:38:36;17.90;99.90
59303;DHT22;45074;52.764;6.896;2022-09-09T09:43:31;18.00;99.90
59303;DHT22;45074;52.764;6.896;2022-09-09T09:45:58;18.80;99.90
59303;DHT22;45074;52.764;6.896;2022-09-09T09:48:25;18.10;99.90
59303;DHT22;45074;52.764;6.896;2022-09-09T09:53:31;18.30;99.90
59303;DHT22;45074;52.764;6.896;2022-09-09T09:56:08;18.20;99.90
59303;DHT22;45074;52.764;6.896;2022-09-09T10:01:30;18.10;99.90
59303;DHT22;45074;52.764;6.896;2022-09-09T10:04:24;18.40;99.90
59303;DHT22;45074;52.764;6.896;2022-09-09T10:11:55;18.40;99.90
59303;DHT22;45074;52.764;6.896;2022-09-09T10:14:39;18.80;99.90
59303;DHT22;45074;52.764;6.896;2022-09-09T10:22:39;19.10;99.90
59303;DHT22;45074;52.764;6.896;2022-09-09T10:25:21;19.50;99.90
59303;DHT22;45074;52.764;6.896;2022-09-09T10:30:57;19.20;99.90
59303;DHT22;45074;52.764;6.896;2022-09-09T10:36:12;19.30;99.90
59303;DHT22;45074;52.764;6.896;2022-09-09T10:38:46;19.40;99.90
59303;DHT22;45074;52.764;6.896;2022-09-09T10:44:17;20.80;99.90
59303;DHT22;45074;52.764;6.896;2022-09-09T10:55:06;19.90;99.90
59303;DHT22;45074;52.764;6.896;2022-09-09T11:00:43;20.00;98.50
59303;DHT22;45074;52.764;6.896;2022-09-09T11:03:40;19.90;99.90
59303;DHT22;45074;52.764;6.896;2022-09-09T11:06:18;19.90;99.90
59303;DHT22;45074;52.764;6.896;2022-09-09T11:08:45;19.70;99.80
59303;DHT22;45074;52.764;6.896;2022-09-09T11:11:30;19.60;99.90
59303;DHT22;45074;52.764;6.896;2022-09-09T11:14:13;19.70;99.90
59303;DHT22;45074;52.764;6.896;2022-09-09T11:16:53;19.50;99.90
59303;DHT22;45074;52.764;6.896;2022-09-09T11:19:35;19.80;99.90
59303;DHT22;45074;52.764;6.896;2022-09-09T11:22:12;19.90;98.20
59303;DHT22;45074;52.764;6.896;2022-09-09T11:24:59;20.00;99.50
59303;DHT22;45074;52.764;6.896;2022-09-09T11:27:51;20.10;98.90
59303;DHT22;45074;52.764;6.896;2022-09-09T11:35:47;20.90;99.90
59303;DHT22;45074;52.764;6.896;2022-09-09T11:38:19;20.80;99.60
59303;DHT22;45074;52.764;6.896;2022-09-09T11:40:46;21.00;99.50
59303;DHT22;45074;52.764;6.896;2022-09-09T11:46:10;21.10;94.80
59303;DHT22;45074;52.764;6.896;2022-09-09T11:48:45;21.00;97.00
59303;DHT22;45074;52.764;6.896;2022-09-09T11:53:49;20.80;95.00
59303;DHT22;45074;52.764;6.896;2022-09-09T11:56:28;21.00;95.90
59303;DHT22;45074;52.764;6.896;2022-09-09T11:59:03;21.10;95.90
59303;DHT22;45074;52.764;6.896;2022-09-09T12:01:37;21.10;96.10
59303;DHT22;45074;52.764;6.896;2022-09-09T12:06:46;20.80;94.10
59303;DHT22;45074;52.764;6.896;2022-09-09T12:11:49;21.70;99.90
59303;DHT22;45074;52.764;6.896;2022-09-09T12:15:16;20.70;99.90
59303;DHT22;45074;52.764;6.896;2022-09-09T12:17:20;21.80;95.80
59303;DHT22;45074;52.764;6.896;2022-09-09T12:19:46;22.10;91.50
59303;DHT22;45074;52.764;6.896;2022-09-09T12:22:35;22.70;93.00
59303;DHT22;45074;52.764;6.896;2022-09-09T12:28:16;22.60;89.50
59303;DHT22;45074;52.764;6.896;2022-09-09T12:31:22;21.80;89.00
59303;DHT22;45074;52.764;6.896;2022-09-09T12:33:44;21.20;90.00
59303;DHT22;45074;52.764;6.896;2022-09-09T12:36:27;21.20;91.70
59303;DHT22;45074;52.764;6.896;2022-09-09T12:38:54;21.10;91.30
59303;DHT22;45074;52.764;6.896;2022-09-09T12:41:24;21.00;94.30
59303;DHT22;45074;52.764;6.896;2022-09-09T12:43:51;19.50;99.90
59303;DHT22;45074;52.764;6.896;2022-09-09T12:46:35;20.80;94.80
59303;DHT22;45074;52.764;6.896;2022-09-09T12:49:02;20.90;94.60
59303;DHT22;45074;52.764;6.896;2022-09-09T12:51:30;21.30;95.60
59303;DHT22;45074;52.764;6.896;2022-09-09T12:53:58;21.70;94.00
59303;DHT22;45074;52.764;6.896;2022-09-09T12:56:26;22.20;93.70
59303;DHT22;45074;52.764;6.896;2022-09-09T12:58:54;22.50;90.30
59303;DHT22;45074;52.764;6.896;2022-09-09T13:01:24;22.60;99.90
59303;DHT22;45074;52.764;6.896;2022-09-09T13:03:50;21.60;90.00
59303;DHT22;45074;52.764;6.896;2022-09-09T13:06:25;21.40;99.90
59303;DHT22;45074;52.764;6.896;2022-09-09T13:08:55;21.60;90.40
59303;DHT22;45074;52.764;6.896;2022-09-09T13:11:26;21.30;99.90
59303;DHT22;45074;52.764;6.896;2022-09-09T13:13:56;20.70;99.90
59303;DHT22;45074;52.764;6.896;2022-09-09T13:18:56;19.00;99.90
59303;DHT22;45074;52.764;6.896;2022-09-09T13:21:34;19.50;99.90
59303;DHT22;45074;52.764;6.896;2022-09-09T13:24:00;21.50;99.90
59303;DHT22;45074;52.764;6.896;2022-09-09T13:26:29;19.50;99.90
59303;DHT22;45074;52.764;6.896;2022-09-09T13:29:07;19.40;99.90
59303;DHT22;45074;52.764;6.896;2022-09-09T13:31:36;19.40;99.90
59303;DHT22;45074;52.764;6.896;2022-09-09T13:34:29;21.40;99.90
59303;DHT22;45074;52.764;6.896;2022-09-09T13:37:07;19.90;99.90
59303;DHT22;45074;52.764;6.896;2022-09-09T13:39:51;20.50;99.90
59303;DHT22;45074;52.764;6.896;2022-09-09T13:42:26;21.40;99.90
59303;DHT22;45074;52.764;6.896;2022-09-09T13:44:53;20.60;99.90
59303;DHT22;45074;52.764;6.896;2022-09-09T13:47:35;20.60;99.90
59303;DHT22;45074;52.764;6.896;2022-09-09T13:50:19;20.60;99.90
59303;DHT22;45074;52.764;6.896;2022-09-09T13:52:45;20.30;99.90
59303;DHT22;45074;52.764;6.896;2022-09-09T13:55:11;20.40;99.90
59303;DHT22;45074;52.764;6.896;2022-09-09T13:57:37;20.30;99.90
59303;DHT22;45074;52.764;6.896;2022-09-09T14:00:03;21.80;99.90
59303;DHT22;45074;52.764;6.896;2022-09-09T14:02:29;20.20;99.90
59303;DHT22;45074;52.764;6.896;2022-09-09T14:04:56;20.30;99.90
59303;DHT22;45074;52.764;6.896;2022-09-09T14:07:22;20.00;99.90
59303;DHT22;45074;52.764;6.896;2022-09-09T14:09:47;19.90;99.90
59303;DHT22;45074;52.764;6.896;2022-09-09T14:12:16;19.50;99.90
59303;DHT22;45074;52.764;6.896;2022-09-09T14:14:42;18.80;99.90
59303;DHT22;45074;52.764;6.896;2022-09-09T14:17:09;18.50;99.90
59303;DHT22;45074;52.764;6.896;2022-09-09T14:19:35;18.50;99.90
59303;DHT22;45074;52.764;6.896;2022-09-09T14:24:28;17.60;99.90
59303;DHT22;45074;52.764;6.896;2022-09-09T14:26:54;17.80;99.90
59303;DHT22;45074;52.764;6.896;2022-09-09T14:29:20;16.70;99.90
59303;DHT22;45074;52.764;6.896;2022-09-09T14:31:46;17.80;99.90
59303;DHT22;45074;52.764;6.896;2022-09-09T14:34:12;18.30;99.90
59303;DHT22;45074;52.764;6.896;2022-09-09T14:36:38;16.90;99.90
59303;DHT22;45074;52.764;6.896;2022-09-09T14:39:04;17.60;99.90
59303;DHT22;45074;52.764;6.896;2022-09-09T14:48:48;20.10;99.90
59303;DHT22;45074;52.764;6.896;2022-09-09T14:53:42;21.20;99.90
59303;DHT22;45074;52.764;6.896;2022-09-09T14:56:11;21.50;99.90
59303;DHT22;45074;52.764;6.896;2022-09-09T15:01:08;21.30;99.90
59303;DHT22;45074;52.764;6.896;2022-09-09T15:03:48;21.00;99.90
59303;DHT22;45074;52.764;6.896;2022-09-09T15:06:14;22.70;99.90
59303;DHT22;45074;52.764;6.896;2022-09-09T15:08:42;21.30;99.90
59303;DHT22;45074;52.764;6.896;2022-09-09T15:11:09;21.30;99.90
59303;DHT22;45074;52.764;6.896;2022-09-09T15:13:36;21.20;99.90
59303;DHT22;45074;52.764;6.896;2022-09-09T15:16:14;21.60;99.90
59303;DHT22;45074;52.764;6.896;2022-09-09T15:18:40;22.40;98.60
59303;DHT22;45074;52.764;6.896;2022-09-09T15:21:19;22.40;98.10
59303;DHT22;45074;52.764;6.896;2022-09-09T15:23:47;22.40;97.90
59303;DHT22;45074;52.764;6.896;2022-09-09T15:26:13;22.40;98.40
59303;DHT22;45074;52.764;6.896;2022-09-09T15:28:44;22.30;98.10
59303;DHT22;45074;52.764;6.896;2022-09-09T15:31:15;22.00;96.80
59303;DHT22;45074;52.764;6.896;2022-09-09T15:33:47;21.80;97.90
59303;DHT22;45074;52.764;6.896;2022-09-09T15:36:17;21.70;97.00
59303;DHT22;45074;52.764;6.896;2022-09-09T15:38:43;21.70;97.70
59303;DHT22;45074;52.764;6.896;2022-09-09T15:41:10;21.70;98.00
59303;DHT22;45074;52.764;6.896;2022-09-09T15:43:35;22.10;99.90
59303;DHT22;45074;52.764;6.896;2022-09-09T15:48:53;21.90;96.50
59303;DHT22;45074;52.764;6.896;2022-09-09T15:51:19;21.80;96.40
59303;DHT22;45074;52.764;6.896;2022-09-09T15:53:45;21.50;96.30
59303;DHT22;45074;52.764;6.896;2022-09-09T15:56:11;21.40;96.50
59303;DHT22;45074;52.764;6.896;2022-09-09T15:58:37;21.70;96.60
59303;DHT22;45074;52.764;6.896;2022-09-09T16:01:04;21.70;96.50
59303;DHT22;45074;52.764;6.896;2022-09-09T16:03:34;21.70;95.60
59303;DHT22;45074;52.764;6.896;2022-09-09T16:05:59;21.70;96.00
59303;DHT22;45074;52.764;6.896;2022-09-09T16:08:34;22.00;95.90
59303;DHT22;45074;52.764;6.896;2022-09-09T16:13:38;21.90;94.20
59303;DHT22;45074;52.764;6.896;2022-09-09T16:16:06;21.70;95.40
59303;DHT22;45074;52.764;6.896;2022-09-09T16:18:46;21.20;95.40
59303;DHT22;45074;52.764;6.896;2022-09-09T16:23:51;20.60;97.30
59303;DHT22;45074;52.764;6.896;2022-09-09T16:26:18;20.50;98.00
59303;DHT22;45074;52.764;6.896;2022-09-09T16:28:44;20.40;98.90
59303;DHT22;45074;52.764;6.896;2022-09-09T16:31:14;20.30;98.90
59303;DHT22;45074;52.764;6.896;2022-09-09T16:36:08;20.40;99.90
59303;DHT22;45074;52.764;6.896;2022-09-09T16:38:36;20.00;99.90
59303;DHT22;45074;52.764;6.896;2022-09-09T16:41:03;19.80;99.80
59303;DHT22;45074;52.764;6.896;2022-09-09T16:50:49;19.50;99.90
59303;DHT22;45074;52.764;6.896;2022-09-09T16:53:14;19.50;99.90
59303;DHT22;45074;52.764;6.896;2022-09-09T16:55:41;19.40;99.90
59303;DHT22;45074;52.764;6.896;2022-09-09T16:58:10;19.40;99.90
59303;DHT22;45074;52.764;6.896;2022-09-09T17:00:36;19.20;99.90
59303;DHT22;45074;52.764;6.896;2022-09-09T17:03:01;19.20;99.90
59303;DHT22;45074;52.764;6.896;2022-09-09T17:05:28;19.10;99.90
59303;DHT22;45074;52.764;6.896;2022-09-09T17:07:54;18.90;99.90
59303;DHT22;45074;52.764;6.896;2022-09-09T17:10:24;18.80;99.90
59303;DHT22;45074;52.764;6.896;2022-09-09T17:12:50;18.80;99.90
59303;DHT22;45074;52.764;6.896;2022-09-09T17:15:16;18.80;99.90
59303;DHT22;45074;52.764;6.896;2022-09-09T17:17:43;19.20;99.90
59303;DHT22;45074;52.764;6.896;2022-09-09T17:20:11;17.90;99.90
59303;DHT22;45074;52.764;6.896;2022-09-09T17:22:37;19.30;99.90
59303;DHT22;45074;52.764;6.896;2022-09-09T17:25:03;19.50;99.90
59303;DHT22;45074;52.764;6.896;2022-09-09T17:27:29;18.70;99.90
59303;DHT22;45074;52.764;6.896;2022-09-09T17:29:57;17.10;99.90
59303;DHT22;45074;52.764;6.896;2022-09-09T17:32:24;17.30;99.90
59303;DHT22;45074;52.764;6.896;2022-09-09T17:34:49;18.60;99.90
59303;DHT22;45074;52.764;6.896;2022-09-09T17:37:15;18.60;99.90
59303;DHT22;45074;52.764;6.896;2022-09-09T17:39:41;18.60;99.90
59303;DHT22;45074;52.764;6.896;2022-09-09T17:42:06;18.50;99.90
59303;DHT22;45074;52.764;6.896;2022-09-09T17:44:35;18.40;99.90
59303;DHT22;45074;52.764;6.896;2022-09-09T17:49:29;18.70;99.90
59303;DHT22;45074;52.764;6.896;2022-09-09T17:51:55;18.60;99.90
59303;DHT22;45074;52.764;6.896;2022-09-09T17:54:21;18.70;99.90
59303;DHT22;45074;52.764;6.896;2022-09-09T17:56:47;18.50;99.90
59303;DHT22;45074;52.764;6.896;2022-09-09T17:59:15;19.70;99.90
59303;DHT22;45074;52.764;6.896;2022-09-09T18:01:43;20.30;99.90
59303;DHT22;45074;52.764;6.896;2022-09-09T18:04:10;18.10;99.90
59303;DHT22;45074;52.764;6.896;2022-09-09T18:06:47;18.70;99.90
59303;DHT22;45074;52.764;6.896;2022-09-09T18:09:21;18.30;99.90
59303;DHT22;45074;52.764;6.896;2022-09-09T18:11:52;18.40;99.90
59303;DHT22;45074;52.764;6.896;2022-09-09T18:14:26;18.40;99.90
59303;DHT22;45074;52.764;6.896;2022-09-09T18:16:53;16.80;99.90
59303;DHT22;45074;52.764;6.896;2022-09-09T18:19:21;18.50;99.90
59303;DHT22;45074;52.764;6.896;2022-09-09T18:21:47;19.70;99.90
59303;DHT22;45074;52.764;6.896;2022-09-09T18:24:15;17.70;99.90
59303;DHT22;45074;52.764;6.896;2022-09-09T18:26:42;18.20;99.90
59303;DHT22;45074;52.764;6.896;2022-09-09T18:29:10;18.60;99.90
59303;DHT22;45074;52.764;6.896;2022-09-09T18:31:37;19.60;99.90
59303;DHT22;45074;52.764;6.896;2022-09-09T18:34:04;17.80;99.90
59303;DHT22;45074;52.764;6.896;2022-09-09T18:36:33;18.10;99.90
59303;DHT22;45074;52.764;6.896;2022-09-09T18:39:01;18.10;99.90
59303;DHT22;45074;52.764;6.896;2022-09-09T18:41:34;18.10;99.90
59303;DHT22;45074;52.764;6.896;2022-09-09T18:44:05;18.00;99.90
59303;DHT22;45074;52.764;6.896;2022-09-09T18:46:33;18.00;99.90
59303;DHT22;45074;52.764;6.896;2022-09-09T18:49:01;18.00;99.90
59303;DHT22;45074;52.764;6.896;2022-09-09T18:51:28;18.00;99.90
59303;DHT22;45074;52.764;6.896;2022-09-09T18:54:02;18.20;99.90
59303;DHT22;45074;52.764;6.896;2022-09-09T18:56:29;17.60;99.90
59303;DHT22;45074;52.764;6.896;2022-09-09T18:59:01;17.90;99.90
59303;DHT22;45074;52.764;6.896;2022-09-09T19:01:29;17.90;99.90
59303;DHT22;45074;52.764;6.896;2022-09-09T19:06:23;17.70;99.90
59303;DHT22;45074;52.764;6.896;2022-09-09T19:08:50;17.70;99.90
59303;DHT22;45074;52.764;6.896;2022-09-09T19:11:18;17.70;99.90
59303;DHT22;45074;52.764;6.896;2022-09-09T19:13:50;17.60;99.90
59303;DHT22;45074;52.764;6.896;2022-09-09T19:16:16;17.60;99.90
59303;DHT22;45074;52.764;6.896;2022-09-09T19:18:42;17.60;99.90
59303;DHT22;45074;52.764;6.896;2022-09-09T19:23:55;17.90;99.90
59303;DHT22;45074;52.764;6.896;2022-09-09T19:26:21;18.20;99.90
59303;DHT22;45074;52.764;6.896;2022-09-09T19:28:47;19.20;99.90
59303;DHT22;45074;52.764;6.896;2022-09-09T19:31:16;17.50;99.90
59303;DHT22;45074;52.764;6.896;2022-09-09T19:33:43;18.80;99.90
59303;DHT22;45074;52.764;6.896;2022-09-09T19:36:10;17.40;99.90
59303;DHT22;45074;52.764;6.896;2022-09-09T19:38:37;16.90;99.90
59303;DHT22;45074;52.764;6.896;2022-09-09T19:41:08;17.30;99.90
59303;DHT22;45074;52.764;6.896;2022-09-09T19:43:34;17.00;99.90
59303;DHT22;45074;52.764;6.896;2022-09-09T19:46:02;17.10;99.90
59303;DHT22;45074;52.764;6.896;2022-09-09T19:48:33;17.10;99.90
59303;DHT22;45074;52.764;6.896;2022-09-09T19:51:14;18.50;99.90
59303;DHT22;45074;52.764;6.896;2022-09-09T19:53:51;17.50;99.90
59303;DHT22;45074;52.764;6.896;2022-09-09T19:56:19;17.00;99.90
59303;DHT22;45074;52.764;6.896;2022-09-09T19:58:48;16.90;99.90
59303;DHT22;45074;52.764;6.896;2022-09-09T20:01:15;16.80;99.90
59303;DHT22;45074;52.764;6.896;2022-09-09T20:03:42;16.80;99.90
59303;DHT22;45074;52.764;6.896;2022-09-09T20:06:10;16.60;99.90
59303;DHT22;45074;52.764;6.896;2022-09-09T20:08:37;16.60;99.90
59303;DHT22;45074;52.764;6.896;2022-09-09T20:11:05;16.90;99.90
59303;DHT22;45074;52.764;6.896;2022-09-09T20:13:33;16.50;99.90
59303;DHT22;45074;52.764;6.896;2022-09-09T20:16:13;16.50;99.90
59303;DHT22;45074;52.764;6.896;2022-09-09T20:18:41;16.50;99.90
59303;DHT22;45074;52.764;6.896;2022-09-09T20:21:16;16.50;99.90
59303;DHT22;45074;52.764;6.896;2022-09-09T20:26:13;16.40;99.90
59303;DHT22;45074;52.764;6.896;2022-09-09T20:28:40;16.40;99.90
59303;DHT22;45074;52.764;6.896;2022-09-09T20:31:14;16.30;99.90
59303;DHT22;45074;52.764;6.896;2022-09-09T20:33:42;15.70;99.90
59303;DHT22;45074;52.764;6.896;2022-09-09T20:36:11;16.20;99.90
59303;DHT22;45074;52.764;6.896;2022-09-09T20:38:58;14.60;99.90
59303;DHT22;45074;52.764;6.896;2022-09-09T20:41:29;16.00;99.90
59303;DHT22;45074;52.764;6.896;2022-09-09T20:43:58;16.00;99.90
59303;DHT22;45074;52.764;6.896;2022-09-09T20:46:27;16.00;99.90
59303;DHT22;45074;52.764;6.896;2022-09-09T20:51:21;15.80;99.90
59303;DHT22;45074;52.764;6.896;2022-09-09T20:53:53;15.80;99.90
59303;DHT22;45074;52.764;6.896;2022-09-09T21:01:15;15.70;99.90
59303;DHT22;45074;52.764;6.896;2022-09-09T21:08:34;16.10;99.90
59303;DHT22;45074;52.764;6.896;2022-09-09T21:13:30;15.50;99.90
59303;DHT22;45074;52.764;6.896;2022-09-09T21:18:22;16.70;99.90
59303;DHT22;45074;52.764;6.896;2022-09-09T21:20:49;15.60;99.90
59303;DHT22;45074;52.764;6.896;2022-09-09T21:23:16;15.60;99.90
59303;DHT22;45074;52.764;6.896;2022-09-09T21:28:09;15.50;99.90
59303;DHT22;45074;52.764;6.896;2022-09-09T21:30:36;15.90;99.90
59303;DHT22;45074;52.764;6.896;2022-09-09T21:33:03;16.60;99.90
59303;DHT22;45074;52.764;6.896;2022-09-09T21:35:33;15.60;99.90
59303;DHT22;45074;52.764;6.896;2022-09-09T21:47:45;15.50;99.90
59303;DHT22;45074;52.764;6.896;2022-09-09T21:55:04;15.30;99.90
59303;DHT22;45074;52.764;6.896;2022-09-09T22:12:08;15.20;99.90
59303;DHT22;45074;52.764;6.896;2022-09-09T22:14:35;15.10;99.90
59303;DHT22;45074;52.764;6.896;2022-09-09T22:29:12;15.40;99.90
59303;DHT22;45074;52.764;6.896;2022-09-09T22:36:31;15.20;99.90
59303;DHT22;45074;52.764;6.896;2022-09-09T22:41:24;12.60;99.90
59303;DHT22;45074;52.764;6.896;2022-09-09T22:46:16;15.20;99.90
59303;DHT22;45074;52.764;6.896;2022-09-09T22:51:11;15.20;99.90
59303;DHT22;45074;52.764;6.896;2022-09-09T22:53:39;15.30;99.90
59303;DHT22;45074;52.764;6.896;2022-09-09T22:56:07;14.50;99.90
59303;DHT22;45074;52.764;6.896;2022-09-09T23:01:23;15.20;99.90
59303;DHT22;45074;52.764;6.896;2022-09-09T23:06:18;16.60;99.90
59303;DHT22;45074;52.764;6.896;2022-09-09T23:08:48;15.20;99.90
59303;DHT22;45074;52.764;6.896;2022-09-09T23:13:46;15.20;99.90
59303;DHT22;45074;52.764;6.896;2022-09-09T23:16:14;15.20;99.90
59303;DHT22;45074;52.764;6.896;2022-09-09T23:21:07;15.20;99.90
59303;DHT22;45074;52.764;6.896;2022-09-09T23:23:33;15.20;99.90
59303;DHT22;45074;52.764;6.896;2022-09-09T23:26:03;16.40;99.90
59303;DHT22;45074;52.764;6.896;2022-09-09T23:28:34;15.20;99.90
59303;DHT22;45074;52.764;6.896;2022-09-09T23:31:08;14.10;99.90
59303;DHT22;45074;52.764;6.896;2022-09-09T23:36:03;16.10;99.90
59303;DHT22;45074;52.764;6.896;2022-09-09T23:41:00;15.20;99.90
59303;DHT22;45074;52.764;6.896;2022-09-09T23:55:42;15.20;99.90
